Time;durP1;ratioP1;P1;durP2;ratioP2;P2;SDS_P1;SDS_P2;PMS_P1;PMS_P2;Temp;Humidity;BMP_temperature;BMP_pressure;BME280_temperature;BME280_humidity;BME280_pressure;Samples;Min_cycle;Max_cycle;Signal;HPM_P1;HPM_P2
2021/07/01 00:00:48;;;;;;;13.63;10.43;;;;;;;;;;5055346;28;20420;-75
2021/07/01 00:03:14;;;;;;;13.90;10.10;;;;;;;;;;5054551;28;20522;-73
2021/07/01 00:05:42;;;;;;;13.30;9.80;;;;;;;;;;5055065;28;20412;-74
2021/07/01 00:08:08;;;;;;;14.67;10.50;;;;;;;;;;5054222;28;20422;-74
2021/07/01 00:10:35;;;;;;;17.33;10.70;;;;;;;;;;5054845;28;20445;-74
2021/07/01 00:13:01;;;;;;;14.83;9.13;;;;;;;;;;5054780;28;20710;-75
2021/07/01 00:15:28;;;;;;;12.53;9.20;;;;;;;;;;5055290;28;20958;-73
2021/07/01 00:17:55;;;;;;;13.20;9.70;;;;;;;;;;5054219;28;20549;-73
2021/07/01 00:20:21;;;;;;;16.27;10.60;;;;;;;;;;5054637;28;20449;-75
2021/07/01 00:22:48;;;;;;;13.53;8.90;;;;;;;;;;5053378;28;20422;-74
2021/07/01 00:25:14;;;;;;;16.23;10.30;;;;;;;;;;5054809;28;20413;-74
2021/07/01 00:27:40;;;;;;;14.47;10.30;;;;;;;;;;5053984;28;20416;-73
2021/07/01 00:30:08;;;;;;;17.47;10.87;;;;;;;;;;5054452;28;20527;-75
2021/07/01 00:32:35;;;;;;;16.33;9.50;;;;;;;;;;5054524;28;20416;-73
2021/07/01 00:35:01;;;;;;;16.60;10.10;;;;;;;;;;5054409;28;20491;-75
2021/07/01 00:37:32;;;;;;;14.90;9.70;;;;;;;;;;5053820;28;20409;-75
2021/07/01 00:39:58;;;;;;;18.00;10.10;;;;;;;;;;5054108;28;20437;-74
2021/07/01 00:42:24;;;;;;;18.43;10.23;;;;;;;;;;5054013;28;20446;-74
2021/07/01 00:44:50;;;;;;;16.17;9.40;;;;;;;;;;5054297;28;20766;-74
2021/07/01 00:47:16;;;;;;;17.37;9.93;;;;;;;;;;5053586;28;20424;-74
2021/07/01 00:49:43;;;;;;;18.73;9.73;;;;;;;;;;5054047;28;20440;-74
2021/07/01 00:52:09;;;;;;;19.07;11.00;;;;;;;;;;5053911;28;20416;-76
2021/07/01 00:54:36;;;;;;;16.23;10.43;;;;;;;;;;5053794;28;20471;-74
2021/07/01 00:57:02;;;;;;;16.93;11.10;;;;;;;;;;5053327;28;20745;-74
2021/07/01 00:59:28;;;;;;;22.93;11.30;;;;;;;;;;5053685;28;20506;-74
2021/07/01 01:01:54;;;;;;;16.03;10.93;;;;;;;;;;5053887;28;20451;-75
2021/07/01 01:04:20;;;;;;;18.40;11.13;;;;;;;;;;5053618;28;20470;-73
2021/07/01 01:06:46;;;;;;;19.07;11.50;;;;;;;;;;5053438;28;20413;-72
2021/07/01 01:09:12;;;;;;;19.27;11.67;;;;;;;;;;5053835;28;20428;-75
2021/07/01 01:11:38;;;;;;;19.57;11.67;;;;;;;;;;5053916;28;20428;-75
2021/07/01 01:14:04;;;;;;;26.40;12.97;;;;;;;;;;5053981;28;20465;-75
2021/07/01 01:16:30;;;;;;;21.10;13.30;;;;;;;;;;5053498;28;20418;-74
2021/07/01 01:18:56;;;;;;;22.37;13.17;;;;;;;;;;5053161;28;20908;-75
2021/07/01 01:21:27;;;;;;;20.03;12.87;;;;;;;;;;5053241;28;20443;-73
2021/07/01 01:23:55;;;;;;;24.10;14.27;;;;;;;;;;5053273;28;20772;-73
2021/07/01 01:26:21;;;;;;;25.80;14.47;;;;;;;;;;5053375;28;20418;-73
2021/07/01 01:28:47;;;;;;;23.93;13.03;;;;;;;;;;5052614;28;20424;-73
2021/07/01 01:31:13;;;;;;;20.10;12.70;;;;;;;;;;5053164;28;20449;-73
2021/07/01 01:33:39;;;;;;;21.43;12.03;;;;;;;;;;5052486;28;20880;-73
2021/07/01 01:36:05;;;;;;;22.20;12.53;;;;;;;;;;5052903;28;20437;-74
2021/07/01 01:38:31;;;;;;;27.40;13.17;;;;;;;;;;5052563;28;20439;-73
2021/07/01 01:40:57;;;;;;;20.17;13.83;;;;;;;;;;5052921;28;20419;-73
2021/07/01 01:43:24;;;;;;;27.47;13.23;;;;;;;;;;5053160;28;20770;-73
2021/07/01 01:45:50;;;;;;;22.97;12.93;;;;;;;;;;5053106;28;20499;-74
2021/07/01 01:48:17;;;;;;;23.60;13.30;;;;;;;;;;5052693;28;20421;-75
2021/07/01 01:50:43;;;;;;;18.83;13.17;;;;;;;;;;5052971;28;20764;-74
2021/07/01 01:53:09;;;;;;;21.27;13.60;;;;;;;;;;5052825;28;21009;-75
2021/07/01 01:55:37;;;;;;;27.90;14.00;;;;;;;;;;5042171;28;20463;-74
2021/07/01 01:58:03;;;;;;;24.30;14.23;;;;;;;;;;5052485;28;21270;-74
2021/07/01 02:00:30;;;;;;;24.50;15.17;;;;;;;;;;5053282;28;20520;-75
2021/07/01 02:02:56;;;;;;;24.97;14.60;;;;;;;;;;5052624;28;20414;-74
2021/07/01 02:05:22;;;;;;;24.67;15.33;;;;;;;;;;5053112;28;20478;-74
2021/07/01 02:07:49;;;;;;;21.80;14.93;;;;;;;;;;5052297;28;20410;-74
2021/07/01 02:10:17;;;;;;;25.00;14.67;;;;;;;;;;5053084;28;20470;-74
2021/07/01 02:12:43;;;;;;;22.90;14.67;;;;;;;;;;5053019;28;20414;-73
2021/07/01 02:15:10;;;;;;;28.63;15.33;;;;;;;;;;5052553;28;20428;-74
2021/07/01 02:17:37;;;;;;;27.40;16.20;;;;;;;;;;5052214;28;20421;-74
2021/07/01 02:20:10;;;;;;;23.53;15.00;;;;;;;;;;5052498;28;20528;-75
2021/07/01 02:22:36;;;;;;;25.93;15.73;;;;;;;;;;5049261;28;20436;-74
2021/07/01 02:25:03;;;;;;;26.80;15.37;;;;;;;;;;5052517;28;20625;-73
2021/07/01 02:27:29;;;;;;;27.57;15.77;;;;;;;;;;5052201;28;20409;-72
2021/07/01 02:29:55;;;;;;;23.83;16.10;;;;;;;;;;5051271;28;20964;-74
2021/07/01 02:32:21;;;;;;;25.30;16.40;;;;;;;;;;5052502;28;20490;-73
2021/07/01 02:34:47;;;;;;;24.87;16.23;;;;;;;;;;5051282;28;21040;-77
2021/07/01 02:37:14;;;;;;;25.70;17.73;;;;;;;;;;5067675;28;20462;-74
2021/07/01 02:39:40;;;;;;;27.97;16.63;;;;;;;;;;5052621;28;20423;-72
2021/07/01 02:42:06;;;;;;;25.87;16.90;;;;;;;;;;5052624;28;20734;-74
2021/07/01 02:44:32;;;;;;;25.93;15.50;;;;;;;;;;5052521;28;20429;-74
2021/07/01 02:46:58;;;;;;;28.73;16.50;;;;;;;;;;5054271;28;20938;-74
2021/07/01 02:49:24;;;;;;;26.60;16.57;;;;;;;;;;5056293;28;20524;-73
2021/07/01 02:51:54;;;;;;;26.50;17.17;;;;;;;;;;5056240;28;20426;-73
2021/07/01 02:54:20;;;;;;;28.80;17.97;;;;;;;;;;5056123;28;20514;-73
2021/07/01 02:56:47;;;;;;;27.00;15.77;;;;;;;;;;5055777;28;20405;-73
2021/07/01 02:59:14;;;;;;;30.37;17.40;;;;;;;;;;5055679;28;20453;-71
2021/07/01 03:01:40;;;;;;;32.60;18.03;;;;;;;;;;5056135;28;20871;-74
2021/07/01 03:04:06;;;;;;;28.40;16.40;;;;;;;;;;5056084;28;20899;-74
2021/07/01 03:06:32;;;;;;;27.90;16.17;;;;;;;;;;5056002;28;20768;-72
2021/07/01 03:08:58;;;;;;;24.93;15.80;;;;;;;;;;5055461;28;20444;-75
2021/07/01 03:11:27;;;;;;;25.93;15.07;;;;;;;;;;5055753;28;20418;-74
2021/07/01 03:13:54;;;;;;;26.97;15.13;;;;;;;;;;5055863;28;20464;-74
2021/07/01 03:16:21;;;;;;;22.63;14.20;;;;;;;;;;5056133;28;20558;-74
2021/07/01 03:18:47;;;;;;;26.10;15.10;;;;;;;;;;5055279;28;20429;-74
2021/07/01 03:21:13;;;;;;;21.70;13.40;;;;;;;;;;5055707;28;20409;-75
2021/07/01 03:23:39;;;;;;;24.83;14.27;;;;;;;;;;5055542;28;20420;-74
2021/07/01 03:26:05;;;;;;;25.50;14.53;;;;;;;;;;5055890;28;20491;-74
2021/07/01 03:28:31;;;;;;;28.03;15.70;;;;;;;;;;5055141;28;20404;-73
2021/07/01 03:30:57;;;;;;;23.40;14.57;;;;;;;;;;5055613;28;20413;-73
2021/07/01 03:33:23;;;;;;;29.23;14.70;;;;;;;;;;5055320;28;20827;-74
2021/07/01 03:35:49;;;;;;;25.90;14.50;;;;;;;;;;5055259;28;20503;-74
2021/07/01 03:38:16;;;;;;;23.30;13.87;;;;;;;;;;5055042;28;20838;-74
2021/07/01 03:40:42;;;;;;;20.10;13.23;;;;;;;;;;5055183;28;20921;-74
2021/07/01 03:43:08;;;;;;;21.63;14.57;;;;;;;;;;5055396;28;20950;-75
2021/07/01 03:45:34;;;;;;;21.97;13.10;;;;;;;;;;5055044;28;20418;-75
2021/07/01 03:48:00;;;;;;;21.23;12.90;;;;;;;;;;5054958;28;20487;-74
2021/07/01 03:50:26;;;;;;;18.73;12.30;;;;;;;;;;5055155;28;20517;-74
2021/07/01 03:52:52;;;;;;;17.80;10.47;;;;;;;;;;5054044;28;20419;-74
2021/07/01 03:55:19;;;;;;;15.43;10.90;;;;;;;;;;5054923;28;20421;-74
2021/07/01 03:57:45;;;;;;;19.30;10.37;;;;;;;;;;5054139;28;20401;-73
2021/07/01 04:00:11;;;;;;;13.03;10.20;;;;;;;;;;5054916;28;20433;-74
2021/07/01 04:02:38;;;;;;;15.50;9.50;;;;;;;;;;5055348;28;20416;-73
2021/07/01 04:05:04;;;;;;;14.20;8.80;;;;;;;;;;5054836;28;20434;-74
2021/07/01 04:07:30;;;;;;;11.57;7.70;;;;;;;;;;5054646;28;20417;-73
2021/07/01 04:09:56;;;;;;;12.43;7.93;;;;;;;;;;5054780;28;20451;-73
2021/07/01 04:12:22;;;;;;;11.83;7.70;;;;;;;;;;5054847;28;20500;-73
2021/07/01 04:14:48;;;;;;;12.63;8.27;;;;;;;;;;5054468;28;20457;-74
2021/07/01 04:17:14;;;;;;;12.00;6.30;;;;;;;;;;5054397;28;20453;-75
2021/07/01 04:19:40;;;;;;;10.60;7.10;;;;;;;;;;5054662;28;20464;-74
2021/07/01 04:22:06;;;;;;;10.57;6.70;;;;;;;;;;5054350;28;20408;-74
2021/07/01 04:24:32;;;;;;;10.93;6.63;;;;;;;;;;5054867;28;20425;-74
2021/07/01 04:26:58;;;;;;;11.53;6.93;;;;;;;;;;5054168;28;20409;-74
2021/07/01 04:29:24;;;;;;;10.23;7.40;;;;;;;;;;5054425;28;20483;-73
2021/07/01 04:31:50;;;;;;;10.90;8.10;;;;;;;;;;5054459;28;20413;-73
2021/07/01 04:34:16;;;;;;;12.10;8.97;;;;;;;;;;5052726;28;20463;-74
2021/07/01 04:36:42;;;;;;;11.70;9.50;;;;;;;;;;5053891;28;20414;-74
2021/07/01 04:39:08;;;;;;;12.47;9.10;;;;;;;;;;5054176;28;20437;-73
2021/07/01 04:41:34;;;;;;;13.73;8.13;;;;;;;;;;5054383;28;20417;-74
2021/07/01 04:44:01;;;;;;;11.93;8.03;;;;;;;;;;5052763;28;20427;-75
2021/07/01 04:46:27;;;;;;;12.13;8.63;;;;;;;;;;5054236;28;20470;-74
2021/07/01 04:48:53;;;;;;;9.63;7.70;;;;;;;;;;5053454;28;20444;-73
2021/07/01 04:51:19;;;;;;;11.07;8.07;;;;;;;;;;5054077;28;20438;-73
2021/07/01 04:53:45;;;;;;;9.37;6.90;;;;;;;;;;5053858;28;20823;-73
2021/07/01 04:56:11;;;;;;;7.30;5.60;;;;;;;;;;5053606;28;20408;-73
2021/07/01 04:58:37;;;;;;;10.30;6.97;;;;;;;;;;5053135;28;21001;-74
2021/07/01 05:01:03;;;;;;;9.80;5.77;;;;;;;;;;5053759;28;20413;-75
2021/07/01 05:03:29;;;;;;;9.07;6.23;;;;;;;;;;5053994;28;20793;-72
2021/07/01 05:05:55;;;;;;;8.03;5.83;;;;;;;;;;5053672;28;20424;-74
2021/07/01 05:08:21;;;;;;;6.27;5.30;;;;;;;;;;5052339;28;20772;-75
2021/07/01 05:10:47;;;;;;;7.97;6.10;;;;;;;;;;5053507;28;20417;-75
2021/07/01 05:13:13;;;;;;;8.03;6.40;;;;;;;;;;5053543;28;20557;-74
2021/07/01 05:15:39;;;;;;;8.70;6.67;;;;;;;;;;5053598;28;20417;-74
2021/07/01 05:18:05;;;;;;;10.57;5.87;;;;;;;;;;5053505;28;20470;-74
2021/07/01 05:20:32;;;;;;;6.67;5.60;;;;;;;;;;5053208;28;20428;-73
2021/07/01 05:22:58;;;;;;;7.03;6.30;;;;;;;;;;5053794;28;20508;-74
2021/07/01 05:25:24;;;;;;;5.43;4.60;;;;;;;;;;5053588;28;20410;-74
2021/07/01 05:27:50;;;;;;;6.37;4.93;;;;;;;;;;5053171;28;20444;-75
2021/07/01 05:30:16;;;;;;;6.53;5.20;;;;;;;;;;5053458;28;20441;-74
2021/07/01 05:32:42;;;;;;;7.00;5.60;;;;;;;;;;5053155;28;20429;-74
2021/07/01 05:35:08;;;;;;;7.53;5.43;;;;;;;;;;5053051;28;20509;-74
2021/07/01 05:37:34;;;;;;;4.93;4.37;;;;;;;;;;5052978;28;20412;-74
2021/07/01 05:40:00;;;;;;;5.33;4.77;;;;;;;;;;5053175;28;20535;-73
2021/07/01 05:42:26;;;;;;;5.03;4.23;;;;;;;;;;5053069;28;20416;-73
2021/07/01 05:44:52;;;;;;;6.40;4.23;;;;;;;;;;5053220;28;20417;-74
2021/07/01 05:47:18;;;;;;;5.50;4.30;;;;;;;;;;5052749;28;20430;-74
2021/07/01 05:49:44;;;;;;;5.63;4.73;;;;;;;;;;5053265;28;20432;-74
2021/07/01 05:52:12;;;;;;;5.10;4.43;;;;;;;;;;5052973;28;20422;-74
2021/07/01 05:54:42;;;;;;;6.60;4.20;;;;;;;;;;5052951;28;20465;-73
2021/07/01 05:57:08;;;;;;;5.80;4.07;;;;;;;;;;5051195;28;20430;-74
2021/07/01 05:59:34;;;;;;;4.50;3.40;;;;;;;;;;5053062;28;20454;-74
2021/07/01 06:02:00;;;;;;;6.00;4.30;;;;;;;;;;5052769;28;20478;-74
2021/07/01 06:04:26;;;;;;;4.07;3.10;;;;;;;;;;5052928;28;20413;-72
2021/07/01 06:06:53;;;;;;;3.57;3.20;;;;;;;;;;5052285;28;20421;-74
2021/07/01 06:09:25;;;;;;;4.77;3.67;;;;;;;;;;5052816;28;20454;-74
2021/07/01 06:11:53;;;;;;;3.97;3.50;;;;;;;;;;5042901;28;20412;-73
2021/07/01 06:14:19;;;;;;;4.40;3.10;;;;;;;;;;5052970;28;20464;-73
2021/07/01 06:16:45;;;;;;;3.70;3.30;;;;;;;;;;5052420;28;20428;-72
2021/07/01 06:19:11;;;;;;;3.43;2.90;;;;;;;;;;5052555;28;20429;-72
2021/07/01 06:21:37;;;;;;;4.27;3.87;;;;;;;;;;5056666;28;20490;-73
2021/07/01 06:24:04;;;;;;;3.90;3.50;;;;;;;;;;5057149;28;20418;-73
2021/07/01 06:26:31;;;;;;;3.83;3.50;;;;;;;;;;5056821;28;20418;-72
2021/07/01 06:28:57;;;;;;;6.97;4.17;;;;;;;;;;5056175;28;20522;-73
2021/07/01 06:31:23;;;;;;;4.00;3.60;;;;;;;;;;5056162;28;20475;-74
2021/07/01 06:33:49;;;;;;;3.73;3.27;;;;;;;;;;5056056;28;21023;-74
2021/07/01 06:36:19;;;;;;;4.83;3.87;;;;;;;;;;5056436;28;20415;-75
2021/07/01 06:38:51;;;;;;;4.47;3.70;;;;;;;;;;5048172;28;21058;-73
2021/07/01 06:41:17;;;;;;;3.77;3.37;;;;;;;;;;5052679;28;20420;-73
2021/07/01 06:43:46;;;;;;;5.17;3.70;;;;;;;;;;5052631;28;20428;-73
2021/07/01 06:46:13;;;;;;;4.77;4.00;;;;;;;;;;5047289;28;20447;-74
2021/07/01 06:48:39;;;;;;;4.33;3.93;;;;;;;;;;5051218;28;21051;-73
2021/07/01 06:51:07;;;;;;;4.83;4.33;;;;;;;;;;5052425;28;20452;-73
2021/07/01 06:53:36;;;;;;;8.00;6.83;;;;;;;;;;5048772;28;20465;-74
2021/07/01 06:56:03;;;;;;;6.47;5.50;;;;;;;;;;5052442;28;20413;-73
2021/07/01 06:58:29;;;;;;;4.93;4.33;;;;;;;;;;5051537;28;20799;-74
2021/07/01 07:00:56;;;;;;;4.80;4.30;;;;;;;;;;5052160;28;20547;-74
2021/07/01 07:03:23;;;;;;;4.90;4.40;;;;;;;;;;5052015;28;20441;-73
2021/07/01 07:05:50;;;;;;;5.53;5.03;;;;;;;;;;5051823;28;20422;-74
2021/07/01 07:08:16;;;;;;;4.97;4.47;;;;;;;;;;5051468;28;20447;-74
2021/07/01 07:10:43;;;;;;;5.70;5.10;;;;;;;;;;5052163;28;20470;-74
2021/07/01 07:13:13;;;;;;;5.30;4.80;;;;;;;;;;5051877;28;20426;-76
2021/07/01 07:15:40;;;;;;;5.73;5.17;;;;;;;;;;5051402;28;20418;-75
2021/07/01 07:18:21;;;;;;;5.63;5.03;;;;;;;;;;5051435;28;20486;-75
2021/07/01 07:20:58;;;;;;;5.90;5.37;;;;;;;;;;5052062;28;20803;-75
2021/07/01 07:23:28;;;;;;;5.57;5.07;;;;;;;;;;5046492;28;20425;-75
2021/07/01 07:25:55;;;;;;;6.43;5.80;;;;;;;;;;5051854;28;20419;-74
2021/07/01 07:28:23;;;;;;;6.50;5.17;;;;;;;;;;5051257;28;20897;-75
2021/07/01 07:30:50;;;;;;;6.73;6.10;;;;;;;;;;5048114;28;20809;-75
2021/07/01 07:33:18;;;;;;;6.57;5.77;;;;;;;;;;5050225;28;20499;-74
2021/07/01 07:35:46;;;;;;;7.17;5.40;;;;;;;;;;5051563;28;20414;-75
2021/07/01 07:38:12;;;;;;;14.33;12.93;;;;;;;;;;5051249;28;20415;-73
2021/07/01 07:40:39;;;;;;;7.20;6.17;;;;;;;;;;5051058;28;20423;-75
2021/07/01 07:43:06;;;;;;;8.10;5.70;;;;;;;;;;5051468;28;20431;-75
2021/07/01 07:45:32;;;;;;;6.77;6.07;;;;;;;;;;5051412;28;20424;-75
2021/07/01 07:47:58;;;;;;;6.10;5.50;;;;;;;;;;5051055;28;20426;-74
2021/07/01 07:50:24;;;;;;;6.27;5.40;;;;;;;;;;5051277;28;20515;-74
2021/07/01 07:52:52;;;;;;;7.03;6.20;;;;;;;;;;5051447;28;20411;-75
2021/07/01 07:55:21;;;;;;;7.40;6.57;;;;;;;;;;5049844;28;21086;-73
2021/07/01 07:57:49;;;;;;;6.23;5.63;;;;;;;;;;5049187;28;21261;-74
2021/07/01 08:00:15;;;;;;;7.70;5.80;;;;;;;;;;5051238;28;21111;-73
2021/07/01 08:02:48;;;;;;;6.80;6.20;;;;;;;;;;5051258;28;20420;-73
2021/07/01 08:05:15;;;;;;;7.90;6.43;;;;;;;;;;5051216;28;20422;-73
2021/07/01 08:07:41;;;;;;;6.80;5.97;;;;;;;;;;5050583;28;20427;-73
2021/07/01 08:10:12;;;;;;;7.43;6.73;;;;;;;;;;5050955;28;20446;-73
2021/07/01 08:12:40;;;;;;;7.23;6.50;;;;;;;;;;5050933;28;20415;-75
2021/07/01 08:15:09;;;;;;;6.97;6.37;;;;;;;;;;5050612;28;20482;-74
2021/07/01 08:17:35;;;;;;;6.50;5.90;;;;;;;;;;5050473;28;20416;-75
2021/07/01 08:20:01;;;;;;;7.33;6.53;;;;;;;;;;5050851;28;20442;-74
2021/07/01 08:22:27;;;;;;;7.03;6.43;;;;;;;;;;5050606;28;20412;-75
2021/07/01 08:24:53;;;;;;;7.40;6.60;;;;;;;;;;5050836;28;20411;-74
2021/07/01 08:27:20;;;;;;;8.73;7.40;;;;;;;;;;5050372;28;21203;-75
2021/07/01 08:29:47;;;;;;;7.20;6.50;;;;;;;;;;5050511;28;20566;-75
2021/07/01 08:32:16;;;;;;;7.40;6.77;;;;;;;;;;5050348;28;20504;-75
2021/07/01 08:34:42;;;;;;;8.70;6.70;;;;;;;;;;5050310;28;20528;-74
2021/07/01 08:37:08;;;;;;;7.57;6.87;;;;;;;;;;5050004;28;20411;-74
2021/07/01 08:39:35;;;;;;;7.37;6.73;;;;;;;;;;5050349;28;20787;-74
2021/07/01 08:42:03;;;;;;;7.90;7.20;;;;;;;;;;5050344;28;20516;-74
2021/07/01 08:44:42;;;;;;;7.40;6.63;;;;;;;;;;5049402;28;20498;-74
2021/07/01 08:47:16;;;;;;;10.17;9.27;;;;;;;;;;5049367;28;20438;-74
2021/07/01 08:49:56;;;;;;;8.47;7.77;;;;;;;;;;5050198;28;20443;-73
2021/07/01 08:52:30;;;;;;;9.80;8.60;;;;;;;;;;5038422;28;20429;-74
2021/07/01 08:55:00;;;;;;;9.40;8.60;;;;;;;;;;5050000;28;20544;-74
2021/07/01 08:57:31;;;;;;;8.67;7.87;;;;;;;;;;5049766;28;20412;-73
2021/07/01 09:00:01;;;;;;;9.30;8.43;;;;;;;;;;5049815;28;20479;-75
2021/07/01 09:02:33;;;;;;;11.63;8.50;;;;;;;;;;5049571;28;20416;-75
2021/07/01 09:05:03;;;;;;;10.20;9.20;;;;;;;;;;5048041;28;20423;-75
2021/07/01 09:07:29;;;;;;;8.83;8.03;;;;;;;;;;5049587;28;20839;-75
2021/07/01 09:10:00;;;;;;;10.80;9.70;;;;;;;;;;5049858;28;20443;-74
2021/07/01 09:12:27;;;;;;;10.20;9.30;;;;;;;;;;5050151;28;20411;-74
2021/07/01 09:14:56;;;;;;;9.80;8.80;;;;;;;;;;5049645;28;20467;-74
2021/07/01 09:17:24;;;;;;;11.57;9.50;;;;;;;;;;5049490;28;20423;-74
2021/07/01 09:19:53;;;;;;;10.43;9.43;;;;;;;;;;5049510;28;20439;-75
2021/07/01 09:22:20;;;;;;;10.53;9.53;;;;;;;;;;5049458;28;20768;-74
2021/07/01 09:24:48;;;;;;;10.97;9.53;;;;;;;;;;5047351;28;20431;-74
2021/07/01 09:27:14;;;;;;;10.30;9.30;;;;;;;;;;5045284;28;22084;-74
2021/07/01 09:29:41;;;;;;;9.40;8.60;;;;;;;;;;5049515;28;20439;-75
2021/07/01 09:32:09;;;;;;;10.57;9.67;;;;;;;;;;5049529;28;20424;-75
2021/07/01 09:34:36;;;;;;;9.87;8.97;;;;;;;;;;5049323;28;20815;-75
2021/07/01 09:37:05;;;;;;;12.73;10.47;;;;;;;;;;5049010;28;20423;-74
2021/07/01 09:39:32;;;;;;;10.83;9.80;;;;;;;;;;5049073;28;20436;-74
2021/07/01 09:42:01;;;;;;;10.43;9.53;;;;;;;;;;5049247;28;20788;-74
2021/07/01 09:44:28;;;;;;;10.30;9.20;;;;;;;;;;5049314;28;20462;-74
2021/07/01 09:46:58;;;;;;;10.60;9.60;;;;;;;;;;5048800;28;20480;-74
2021/07/01 09:49:29;;;;;;;11.13;10.03;;;;;;;;;;5049209;28;20467;-75
2021/07/01 09:51:57;;;;;;;10.00;9.10;;;;;;;;;;5049148;28;20434;-75
2021/07/01 09:54:23;;;;;;;9.13;8.33;;;;;;;;;;5048964;28;20823;-75
2021/07/01 09:57:00;;;;;;;10.77;9.50;;;;;;;;;;5048817;28;20412;-74
2021/07/01 10:00:10;;;;;;;9.87;8.87;;;;;;;;;;5049558;28;20938;-75
2021/07/01 10:02:37;;;;;;;9.40;8.60;;;;;;;;;;5035673;28;20473;-74
2021/07/01 10:05:07;;;;;;;9.00;8.20;;;;;;;;;;5049141;28;20416;-75
2021/07/01 10:07:33;;;;;;;8.70;8.00;;;;;;;;;;5048925;28;20423;-74
2021/07/01 10:10:10;;;;;;;9.67;8.87;;;;;;;;;;5049033;28;20497;-75
2021/07/01 10:12:47;;;;;;;8.80;8.00;;;;;;;;;;5049138;28;20911;-75
2021/07/01 10:15:25;;;;;;;8.87;8.03;;;;;;;;;;5044086;28;20971;-75
2021/07/01 10:18:03;;;;;;;10.10;9.07;;;;;;;;;;5048611;28;20438;-75
2021/07/01 10:20:40;;;;;;;9.97;9.07;;;;;;;;;;5048782;28;20447;-74
2021/07/01 10:23:25;;;;;;;8.03;7.43;;;;;;;;;;5048816;28;20411;-75
2021/07/01 10:25:52;;;;;;;7.30;6.60;;;;;;;;;;5048139;28;20506;-74
2021/07/01 10:28:19;;;;;;;7.30;6.70;;;;;;;;;;5048561;28;20411;-74
2021/07/01 10:31:03;;;;;;;7.57;6.87;;;;;;;;;;5048595;28;20411;-75
2021/07/01 10:33:34;;;;;;;8.30;7.57;;;;;;;;;;5048253;28;20513;-74
2021/07/01 10:36:02;;;;;;;7.27;6.60;;;;;;;;;;5048867;28;20768;-74
2021/07/01 10:38:40;;;;;;;7.73;7.13;;;;;;;;;;5048600;28;20411;-75
2021/07/01 10:41:06;;;;;;;6.77;6.17;;;;;;;;;;5039041;28;20450;-75
2021/07/01 10:43:43;;;;;;;6.80;6.20;;;;;;;;;;5048676;28;20453;-75
2021/07/01 10:46:09;;;;;;;6.30;5.80;;;;;;;;;;5048561;28;21022;-75
2021/07/01 10:48:35;;;;;;;6.87;6.20;;;;;;;;;;5048313;28;21021;-75
2021/07/01 10:51:13;;;;;;;7.00;6.30;;;;;;;;;;5048689;28;20427;-74
2021/07/01 10:53:40;;;;;;;7.20;6.63;;;;;;;;;;5048311;28;20467;-76
2021/07/01 10:56:06;;;;;;;6.97;6.43;;;;;;;;;;5048769;28;20416;-75
2021/07/01 10:58:32;;;;;;;8.00;5.90;;;;;;;;;;5047953;28;20427;-73
2021/07/01 11:01:02;;;;;;;6.60;6.10;;;;;;;;;;5047254;28;20415;-74
2021/07/01 11:03:30;;;;;;;6.23;5.73;;;;;;;;;;5048252;28;20434;-74
2021/07/01 11:05:56;;;;;;;7.17;6.47;;;;;;;;;;5048527;28;20494;-74
2021/07/01 11:08:27;;;;;;;7.17;6.57;;;;;;;;;;5050912;28;21190;-74
2021/07/01 11:10:53;;;;;;;7.27;6.67;;;;;;;;;;5052456;28;20453;-74
2021/07/01 11:13:23;;;;;;;6.80;6.20;;;;;;;;;;5051539;28;20918;-70
2021/07/01 11:16:02;;;;;;;6.30;5.80;;;;;;;;;;5052181;28;20435;-72
2021/07/01 11:18:38;;;;;;;6.57;6.07;;;;;;;;;;5051483;28;20411;-72
2021/07/01 11:21:07;;;;;;;6.90;6.40;;;;;;;;;;5051857;28;20767;-72
2021/07/01 11:23:33;;;;;;;7.00;6.40;;;;;;;;;;5048554;28;20426;-71
2021/07/01 11:25:59;;;;;;;6.50;6.00;;;;;;;;;;5046439;28;20431;-70
2021/07/01 11:28:31;;;;;;;6.23;5.60;;;;;;;;;;5042999;28;20426;-71
2021/07/01 11:31:00;;;;;;;6.97;6.37;;;;;;;;;;5051210;28;20419;-71
2021/07/01 11:33:27;;;;;;;6.87;6.37;;;;;;;;;;5050535;28;20447;-72
2021/07/01 11:36:15;;;;;;;6.40;5.90;;;;;;;;;;5051626;28;20451;-70
2021/07/01 11:38:41;;;;;;;6.30;5.80;;;;;;;;;;5051213;28;20489;-71
2021/07/01 11:41:08;;;;;;;6.17;5.67;;;;;;;;;;5045820;28;20442;-71
2021/07/01 11:43:36;;;;;;;6.13;5.73;;;;;;;;;;5043705;28;20547;-71
2021/07/01 11:46:02;;;;;;;6.10;5.70;;;;;;;;;;5051456;28;20415;-72
2021/07/01 11:48:32;;;;;;;5.47;5.03;;;;;;;;;;5050861;28;20423;-72
2021/07/01 11:50:59;;;;;;;5.87;5.27;;;;;;;;;;5042679;28;20408;-72
2021/07/01 11:53:26;;;;;;;5.97;5.47;;;;;;;;;;5051216;28;20458;-72
2021/07/01 11:55:58;;;;;;;5.00;4.60;;;;;;;;;;5051151;28;20411;-72
2021/07/01 11:58:25;;;;;;;5.30;4.90;;;;;;;;;;5050963;28;20446;-72
2021/07/01 12:00:54;;;;;;;5.53;5.13;;;;;;;;;;5051056;28;20411;-72
2021/07/01 12:03:20;;;;;;;5.30;4.80;;;;;;;;;;5051108;28;21030;-73
2021/07/01 12:05:47;;;;;;;5.40;5.00;;;;;;;;;;5051073;28;21192;-72
2021/07/01 12:08:14;;;;;;;5.10;4.70;;;;;;;;;;5050712;28;20420;-72
2021/07/01 12:10:41;;;;;;;6.10;5.60;;;;;;;;;;5051346;28;20435;-72
2021/07/01 12:13:25;;;;;;;5.90;5.50;;;;;;;;;;5050987;28;20415;-72
2021/07/01 12:16:02;;;;;;;5.50;5.00;;;;;;;;;;5050964;28;20420;-72
2021/07/01 12:18:47;;;;;;;5.97;5.53;;;;;;;;;;5050465;28;20841;-74
2021/07/01 12:21:16;;;;;;;6.20;5.70;;;;;;;;;;5050835;28;20431;-72
2021/07/01 12:23:45;;;;;;;6.30;5.87;;;;;;;;;;5050863;28;20450;-71
2021/07/01 12:26:32;;;;;;;5.87;5.37;;;;;;;;;;5050661;28;20418;-72
2021/07/01 12:28:58;;;;;;;6.40;5.90;;;;;;;;;;5050439;28;20454;-72
2021/07/01 12:31:25;;;;;;;6.23;5.73;;;;;;;;;;5050734;28;20400;-72
2021/07/01 12:33:55;;;;;;;5.87;5.47;;;;;;;;;;5050231;28;21009;-73
2021/07/01 12:36:27;;;;;;;6.83;6.23;;;;;;;;;;5050635;28;20412;-73
2021/07/01 12:39:06;;;;;;;6.70;5.40;;;;;;;;;;5050105;28;20445;-73
2021/07/01 12:41:32;;;;;;;6.13;5.53;;;;;;;;;;5050265;28;20421;-72
2021/07/01 12:44:03;;;;;;;6.00;5.50;;;;;;;;;;5050228;28;20419;-73
2021/07/01 12:46:50;;;;;;;6.87;6.03;;;;;;;;;;5049773;28;20417;-72
2021/07/01 12:49:21;;;;;;;7.13;6.53;;;;;;;;;;5049726;28;20526;-72
2021/07/01 12:51:47;;;;;;;9.50;8.60;;;;;;;;;;5049705;28;20423;-72
2021/07/01 12:54:25;;;;;;;11.37;10.20;;;;;;;;;;5049883;28;20512;-72
2021/07/01 12:56:51;;;;;;;9.97;9.10;;;;;;;;;;5049377;28;20824;-71
2021/07/01 12:59:17;;;;;;;12.03;10.83;;;;;;;;;;5049801;28;20546;-73
2021/07/01 13:01:44;;;;;;;10.83;9.83;;;;;;;;;;5049626;28;20502;-71
2021/07/01 13:04:10;;;;;;;10.47;9.33;;;;;;;;;;5049758;28;20465;-72
2021/07/01 13:06:40;;;;;;;11.40;10.37;;;;;;;;;;5049099;28;20411;-72
2021/07/01 13:09:06;;;;;;;11.70;10.47;;;;;;;;;;5043286;28;20957;-73
2021/07/01 13:11:42;;;;;;;11.77;10.60;;;;;;;;;;5045054;28;20423;-72
2021/07/01 13:14:08;;;;;;;11.23;10.13;;;;;;;;;;5048650;28;20465;-72
2021/07/01 13:16:34;;;;;;;11.93;10.90;;;;;;;;;;5049072;28;20866;-72
2021/07/01 13:19:19;;;;;;;11.60;10.57;;;;;;;;;;5049112;28;20440;-72
2021/07/01 13:21:54;;;;;;;13.43;10.73;;;;;;;;;;5040499;28;20458;-73
2021/07/01 13:24:20;;;;;;;13.33;12.13;;;;;;;;;;5049241;28;20414;-72
2021/07/01 13:26:46;;;;;;;12.53;11.43;;;;;;;;;;5049386;28;20531;-73
2021/07/01 13:29:12;;;;;;;13.40;12.07;;;;;;;;;;5042384;28;20437;-73
2021/07/01 13:31:38;;;;;;;12.63;11.47;;;;;;;;;;5049135;28;20428;-73
2021/07/01 13:34:05;;;;;;;12.73;11.63;;;;;;;;;;5048941;28;20463;-73
2021/07/01 13:36:31;;;;;;;11.60;10.60;;;;;;;;;;5049200;28;20408;-73
2021/07/01 13:38:57;;;;;;;10.90;10.00;;;;;;;;;;5048855;28;20845;-73
2021/07/01 13:41:27;;;;;;;10.67;9.57;;;;;;;;;;5049330;28;20431;-71
2021/07/01 13:43:53;;;;;;;10.30;9.30;;;;;;;;;;5049153;28;20773;-73
2021/07/01 13:46:20;;;;;;;10.10;9.20;;;;;;;;;;5049227;28;20426;-73
2021/07/01 13:48:46;;;;;;;9.33;8.60;;;;;;;;;;5048391;28;20494;-72
2021/07/01 13:51:14;;;;;;;10.47;9.33;;;;;;;;;;5049220;28;20418;-72
2021/07/01 13:53:44;;;;;;;10.70;9.70;;;;;;;;;;5048350;28;20500;-74
2021/07/01 13:56:11;;;;;;;10.43;9.40;;;;;;;;;;5049051;28;20430;-73
2021/07/01 13:58:38;;;;;;;9.43;8.67;;;;;;;;;;5048370;28;20527;-73
2021/07/01 14:01:06;;;;;;;9.83;8.87;;;;;;;;;;5048996;28;20437;-72
2021/07/01 14:03:33;;;;;;;8.47;7.70;;;;;;;;;;5048776;28;21192;-73
2021/07/01 14:06:02;;;;;;;9.10;8.30;;;;;;;;;;5047080;28;20911;-73
2021/07/01 14:08:28;;;;;;;10.03;9.10;;;;;;;;;;5048239;28;20484;-73
2021/07/01 14:10:58;;;;;;;10.43;9.50;;;;;;;;;;5048812;28;20987;-74
2021/07/01 14:13:24;;;;;;;10.13;9.23;;;;;;;;;;5048784;28;20443;-73
2021/07/01 14:15:50;;;;;;;10.20;9.23;;;;;;;;;;5048661;28;20458;-74
2021/07/01 14:18:16;;;;;;;10.50;9.50;;;;;;;;;;5048356;28;20407;-73
2021/07/01 14:20:42;;;;;;;11.13;9.70;;;;;;;;;;5048793;28;21100;-73
2021/07/01 14:23:22;;;;;;;10.93;9.53;;;;;;;;;;5049024;28;21045;-73
2021/07/01 14:25:48;;;;;;;10.67;9.73;;;;;;;;;;5048631;28;20433;-73
2021/07/01 14:28:15;;;;;;;11.10;10.00;;;;;;;;;;5048474;28;20411;-73
2021/07/01 14:30:43;;;;;;;11.30;10.20;;;;;;;;;;5048601;28;20415;-72
2021/07/01 14:33:28;;;;;;;11.67;10.40;;;;;;;;;;5048381;28;20416;-73
2021/07/01 14:36:07;;;;;;;12.17;10.80;;;;;;;;;;5046664;28;20471;-72
2021/07/01 14:38:34;;;;;;;11.77;10.70;;;;;;;;;;5046446;28;20423;-73